sensor_id;sensor_type;location;lat;lon;timestamp;temperature;humidity
12123;DHT22;6125;59.628;17.852;2023-03-24T00:00:42;7.00;99.90
12123;DHT22;6125;59.628;17.852;2023-03-24T00:03:09;7.00;99.90
12123;DHT22;6125;59.628;17.852;2023-03-24T00:05:36;7.00;99.90
12123;DHT22;6125;59.628;17.852;2023-03-24T00:08:06;7.00;99.90
12123;DHT22;6125;59.628;17.852;2023-03-24T00:10:33;7.00;99.90
12123;DHT22;6125;59.628;17.852;2023-03-24T00:13:02;7.00;99.90
12123;DHT22;6125;59.628;17.852;2023-03-24T00:15:30;7.00;99.90
12123;DHT22;6125;59.628;17.852;2023-03-24T00:17:58;7.10;99.90
12123;DHT22;6125;59.628;17.852;2023-03-24T00:20:26;7.10;99.90
12123;DHT22;6125;59.628;17.852;2023-03-24T00:22:54;7.10;99.90
12123;DHT22;6125;59.628;17.852;2023-03-24T00:25:26;7.10;99.90
12123;DHT22;6125;59.628;17.852;2023-03-24T00:27:54;7.10;99.90
12123;DHT22;6125;59.628;17.852;2023-03-24T00:30:22;7.10;99.90
12123;DHT22;6125;59.628;17.852;2023-03-24T00:32:50;7.10;99.90
12123;DHT22;6125;59.628;17.852;2023-03-24T00:35:17;7.20;99.90
12123;DHT22;6125;59.628;17.852;2023-03-24T00:37:44;7.20;99.90
12123;DHT22;6125;59.628;17.852;2023-03-24T00:40:14;7.20;99.90
12123;DHT22;6125;59.628;17.852;2023-03-24T00:42:44;7.20;99.90
12123;DHT22;6125;59.628;17.852;2023-03-24T00:45:14;7.20;99.90
12123;DHT22;6125;59.628;17.852;2023-03-24T00:47:42;7.20;99.90
12123;DHT22;6125;59.628;17.852;2023-03-24T00:50:13;7.20;99.90
12123;DHT22;6125;59.628;17.852;2023-03-24T00:52:42;7.20;99.90
12123;DHT22;6125;59.628;17.852;2023-03-24T00:55:13;7.20;99.90
12123;DHT22;6125;59.628;17.852;2023-03-24T00:57:43;7.20;99.90
12123;DHT22;6125;59.628;17.852;2023-03-24T01:00:17;7.20;99.90
12123;DHT22;6125;59.628;17.852;2023-03-24T01:02:46;7.20;99.90
12123;DHT22;6125;59.628;17.852;2023-03-24T01:05:18;7.20;99.90
12123;DHT22;6125;59.628;17.852;2023-03-24T01:07:46;7.20;99.90
12123;DHT22;6125;59.628;17.852;2023-03-24T01:10:18;7.20;99.90
12123;DHT22;6125;59.628;17.852;2023-03-24T01:12:47;7.20;99.90
12123;DHT22;6125;59.628;17.852;2023-03-24T01:15:16;7.20;99.90
12123;DHT22;6125;59.628;17.852;2023-03-24T01:17:44;7.20;99.90
12123;DHT22;6125;59.628;17.852;2023-03-24T01:20:13;7.20;99.90
12123;DHT22;6125;59.628;17.852;2023-03-24T01:22:42;7.20;99.90
12123;DHT22;6125;59.628;17.852;2023-03-24T01:25:12;7.20;99.90
12123;DHT22;6125;59.628;17.852;2023-03-24T01:27:41;7.20;99.90
12123;DHT22;6125;59.628;17.852;2023-03-24T01:30:11;7.20;99.90
12123;DHT22;6125;59.628;17.852;2023-03-24T01:32:38;7.20;99.90
12123;DHT22;6125;59.628;17.852;2023-03-24T01:35:06;7.20;99.90
12123;DHT22;6125;59.628;17.852;2023-03-24T01:37:41;7.20;99.90
12123;DHT22;6125;59.628;17.852;2023-03-24T01:40:10;7.20;99.90
12123;DHT22;6125;59.628;17.852;2023-03-24T01:42:38;7.20;99.90
12123;DHT22;6125;59.628;17.852;2023-03-24T01:48:23;7.20;99.90
12123;DHT22;6125;59.628;17.852;2023-03-24T01:50:54;7.20;99.90
12123;DHT22;6125;59.628;17.852;2023-03-24T01:53:22;7.30;99.90
12123;DHT22;6125;59.628;17.852;2023-03-24T01:55:50;7.30;99.90
12123;DHT22;6125;59.628;17.852;2023-03-24T01:58:18;7.20;99.90
12123;DHT22;6125;59.628;17.852;2023-03-24T02:00:45;7.20;99.90
12123;DHT22;6125;59.628;17.852;2023-03-24T02:03:17;7.20;99.90
12123;DHT22;6125;59.628;17.852;2023-03-24T02:05:46;7.20;99.90
12123;DHT22;6125;59.628;17.852;2023-03-24T02:08:19;7.20;99.90
12123;DHT22;6125;59.628;17.852;2023-03-24T02:10:48;7.20;99.90
12123;DHT22;6125;59.628;17.852;2023-03-24T02:13:16;7.20;99.90
12123;DHT22;6125;59.628;17.852;2023-03-24T02:15:50;7.20;99.90
12123;DHT22;6125;59.628;17.852;2023-03-24T02:18:24;7.20;99.90
12123;DHT22;6125;59.628;17.852;2023-03-24T02:26:58;7.20;99.90
12123;DHT22;6125;59.628;17.852;2023-03-24T02:30:06;7.30;99.90
12123;DHT22;6125;59.628;17.852;2023-03-24T02:36:04;7.20;99.90
12123;DHT22;6125;59.628;17.852;2023-03-24T02:39:15;7.20;99.90
12123;DHT22;6125;59.628;17.852;2023-03-24T02:41:48;7.20;99.90
12123;DHT22;6125;59.628;17.852;2023-03-24T02:44:22;7.10;99.90
12123;DHT22;6125;59.628;17.852;2023-03-24T02:46:55;7.10;99.90
12123;DHT22;6125;59.628;17.852;2023-03-24T02:49:29;7.10;99.90
12123;DHT22;6125;59.628;17.852;2023-03-24T02:52:02;7.00;99.90
12123;DHT22;6125;59.628;17.852;2023-03-24T02:54:39;7.00;99.90
12123;DHT22;6125;59.628;17.852;2023-03-24T02:57:10;7.00;99.90
12123;DHT22;6125;59.628;17.852;2023-03-24T02:59:41;7.00;99.90
12123;DHT22;6125;59.628;17.852;2023-03-24T03:02:14;7.00;99.90
12123;DHT22;6125;59.628;17.852;2023-03-24T03:04:45;7.00;99.90
12123;DHT22;6125;59.628;17.852;2023-03-24T03:07:16;7.00;99.90
12123;DHT22;6125;59.628;17.852;2023-03-24T03:09:52;7.00;99.90
12123;DHT22;6125;59.628;17.852;2023-03-24T03:12:22;7.00;99.90
12123;DHT22;6125;59.628;17.852;2023-03-24T03:14:54;7.00;99.90
12123;DHT22;6125;59.628;17.852;2023-03-24T03:17:26;6.90;99.90
12123;DHT22;6125;59.628;17.852;2023-03-24T03:19:58;6.90;99.90
12123;DHT22;6125;59.628;17.852;2023-03-24T03:22:37;6.90;99.90
12123;DHT22;6125;59.628;17.852;2023-03-24T03:25:10;6.80;99.90
12123;DHT22;6125;59.628;17.852;2023-03-24T03:27:39;6.80;99.90
12123;DHT22;6125;59.628;17.852;2023-03-24T03:30:13;6.80;99.90
12123;DHT22;6125;59.628;17.852;2023-03-24T03:32:46;6.80;99.90
12123;DHT22;6125;59.628;17.852;2023-03-24T03:35:23;6.80;99.90
12123;DHT22;6125;59.628;17.852;2023-03-24T03:37:57;6.80;99.90
12123;DHT22;6125;59.628;17.852;2023-03-24T03:40:33;6.80;99.90
12123;DHT22;6125;59.628;17.852;2023-03-24T03:43:01;6.80;99.90
12123;DHT22;6125;59.628;17.852;2023-03-24T03:45:29;6.80;99.90
12123;DHT22;6125;59.628;17.852;2023-03-24T03:47:56;6.80;99.90
12123;DHT22;6125;59.628;17.852;2023-03-24T03:50:23;6.80;99.90
12123;DHT22;6125;59.628;17.852;2023-03-24T03:52:50;6.80;99.90
12123;DHT22;6125;59.628;17.852;2023-03-24T03:55:18;6.80;99.90
12123;DHT22;6125;59.628;17.852;2023-03-24T03:57:47;6.70;99.90
12123;DHT22;6125;59.628;17.852;2023-03-24T04:00:16;6.70;99.90
12123;DHT22;6125;59.628;17.852;2023-03-24T04:03:00;6.70;99.90
12123;DHT22;6125;59.628;17.852;2023-03-24T04:05:32;6.70;99.90
12123;DHT22;6125;59.628;17.852;2023-03-24T04:08:17;6.70;99.90
12123;DHT22;6125;59.628;17.852;2023-03-24T04:11:04;6.70;99.90
12123;DHT22;6125;59.628;17.852;2023-03-24T04:13:43;6.70;99.90
12123;DHT22;6125;59.628;17.852;2023-03-24T04:16:20;6.70;99.90
12123;DHT22;6125;59.628;17.852;2023-03-24T04:19:04;6.60;99.90
12123;DHT22;6125;59.628;17.852;2023-03-24T04:21:47;6.60;99.90
12123;DHT22;6125;59.628;17.852;2023-03-24T04:24:32;6.60;99.90
12123;DHT22;6125;59.628;17.852;2023-03-24T04:27:08;6.60;99.90
12123;DHT22;6125;59.628;17.852;2023-03-24T04:29:45;6.60;99.90
12123;DHT22;6125;59.628;17.852;2023-03-24T04:32:23;6.60;99.90
12123;DHT22;6125;59.628;17.852;2023-03-24T04:34:55;6.50;99.90
12123;DHT22;6125;59.628;17.852;2023-03-24T04:37:28;6.50;99.90
12123;DHT22;6125;59.628;17.852;2023-03-24T04:39:58;6.50;99.90
12123;DHT22;6125;59.628;17.852;2023-03-24T04:42:32;6.50;99.90
12123;DHT22;6125;59.628;17.852;2023-03-24T04:45:02;6.50;99.90
12123;DHT22;6125;59.628;17.852;2023-03-24T04:47:33;6.50;99.90
12123;DHT22;6125;59.628;17.852;2023-03-24T04:50:04;6.50;99.90
12123;DHT22;6125;59.628;17.852;2023-03-24T04:52:32;6.50;99.90
12123;DHT22;6125;59.628;17.852;2023-03-24T04:55:00;6.50;99.90
12123;DHT22;6125;59.628;17.852;2023-03-24T04:57:28;6.50;99.90
12123;DHT22;6125;59.628;17.852;2023-03-24T04:59:55;6.50;99.90
12123;DHT22;6125;59.628;17.852;2023-03-24T05:02:23;6.50;99.90
12123;DHT22;6125;59.628;17.852;2023-03-24T05:04:50;6.50;99.90
12123;DHT22;6125;59.628;17.852;2023-03-24T05:07:18;6.50;99.90
12123;DHT22;6125;59.628;17.852;2023-03-24T05:09:46;6.50;99.90
12123;DHT22;6125;59.628;17.852;2023-03-24T05:12:13;6.50;99.90
12123;DHT22;6125;59.628;17.852;2023-03-24T05:14:40;6.50;99.90
12123;DHT22;6125;59.628;17.852;2023-03-24T05:17:07;6.50;99.90
12123;DHT22;6125;59.628;17.852;2023-03-24T05:19:35;6.60;99.90
12123;DHT22;6125;59.628;17.852;2023-03-24T05:22:03;6.60;99.90
12123;DHT22;6125;59.628;17.852;2023-03-24T05:24:30;6.60;99.90
12123;DHT22;6125;59.628;17.852;2023-03-24T05:26:57;6.60;99.90
12123;DHT22;6125;59.628;17.852;2023-03-24T05:29:25;6.60;99.90
12123;DHT22;6125;59.628;17.852;2023-03-24T05:31:52;6.60;99.90
12123;DHT22;6125;59.628;17.852;2023-03-24T05:34:20;6.60;99.90
12123;DHT22;6125;59.628;17.852;2023-03-24T05:36:49;6.60;99.90
12123;DHT22;6125;59.628;17.852;2023-03-24T05:39:16;6.70;99.90
12123;DHT22;6125;59.628;17.852;2023-03-24T05:41:43;6.70;99.90
12123;DHT22;6125;59.628;17.852;2023-03-24T05:44:10;6.70;99.90
12123;DHT22;6125;59.628;17.852;2023-03-24T05:46:37;6.60;99.90
12123;DHT22;6125;59.628;17.852;2023-03-24T05:49:04;6.60;99.90
12123;DHT22;6125;59.628;17.852;2023-03-24T05:51:31;6.60;99.90
12123;DHT22;6125;59.628;17.852;2023-03-24T05:54:00;6.70;99.90
12123;DHT22;6125;59.628;17.852;2023-03-24T05:56:30;6.70;99.90
12123;DHT22;6125;59.628;17.852;2023-03-24T05:58:57;6.70;99.90
12123;DHT22;6125;59.628;17.852;2023-03-24T06:01:24;6.70;99.90
12123;DHT22;6125;59.628;17.852;2023-03-24T06:03:53;6.70;99.90
12123;DHT22;6125;59.628;17.852;2023-03-24T06:06:21;6.80;99.90
12123;DHT22;6125;59.628;17.852;2023-03-24T06:08:48;6.80;99.90
12123;DHT22;6125;59.628;17.852;2023-03-24T06:11:20;6.80;99.90
12123;DHT22;6125;59.628;17.852;2023-03-24T06:13:47;6.90;99.90
12123;DHT22;6125;59.628;17.852;2023-03-24T06:16:15;6.90;99.90
12123;DHT22;6125;59.628;17.852;2023-03-24T06:18:43;7.00;99.90
12123;DHT22;6125;59.628;17.852;2023-03-24T06:21:18;7.00;99.90
12123;DHT22;6125;59.628;17.852;2023-03-24T06:23:45;7.00;99.90
12123;DHT22;6125;59.628;17.852;2023-03-24T06:26:12;7.00;99.90
12123;DHT22;6125;59.628;17.852;2023-03-24T06:28:42;7.00;99.90
12123;DHT22;6125;59.628;17.852;2023-03-24T06:31:10;7.00;99.90
12123;DHT22;6125;59.628;17.852;2023-03-24T06:33:39;7.00;99.90
12123;DHT22;6125;59.628;17.852;2023-03-24T06:36:07;7.00;99.90
12123;DHT22;6125;59.628;17.852;2023-03-24T06:38:35;7.10;99.90
12123;DHT22;6125;59.628;17.852;2023-03-24T06:41:03;7.10;99.90
12123;DHT22;6125;59.628;17.852;2023-03-24T06:43:31;7.10;99.90
12123;DHT22;6125;59.628;17.852;2023-03-24T06:46:00;7.20;99.90
12123;DHT22;6125;59.628;17.852;2023-03-24T06:48:27;7.30;99.90
12123;DHT22;6125;59.628;17.852;2023-03-24T06:50:55;7.30;99.90
12123;DHT22;6125;59.628;17.852;2023-03-24T06:53:22;7.40;99.90
12123;DHT22;6125;59.628;17.852;2023-03-24T06:55:49;7.50;99.90
12123;DHT22;6125;59.628;17.852;2023-03-24T06:58:17;7.50;99.90
12123;DHT22;6125;59.628;17.852;2023-03-24T07:00:44;7.50;99.90
12123;DHT22;6125;59.628;17.852;2023-03-24T07:03:14;7.60;99.90
12123;DHT22;6125;59.628;17.852;2023-03-24T07:05:43;7.60;99.90
12123;DHT22;6125;59.628;17.852;2023-03-24T07:08:11;7.60;99.90
12123;DHT22;6125;59.628;17.852;2023-03-24T07:10:39;7.70;99.90
12123;DHT22;6125;59.628;17.852;2023-03-24T07:13:06;7.70;99.90
12123;DHT22;6125;59.628;17.852;2023-03-24T07:15:34;7.70;99.90
12123;DHT22;6125;59.628;17.852;2023-03-24T07:18:01;7.80;99.90
12123;DHT22;6125;59.628;17.852;2023-03-24T07:20:29;7.70;99.90
12123;DHT22;6125;59.628;17.852;2023-03-24T07:22:57;7.70;99.90
12123;DHT22;6125;59.628;17.852;2023-03-24T07:25:24;7.70;99.90
12123;DHT22;6125;59.628;17.852;2023-03-24T07:27:59;7.80;99.90
12123;DHT22;6125;59.628;17.852;2023-03-24T07:30:26;7.80;99.90
12123;DHT22;6125;59.628;17.852;2023-03-24T07:32:55;7.90;99.90
12123;DHT22;6125;59.628;17.852;2023-03-24T07:35:22;8.00;99.90
12123;DHT22;6125;59.628;17.852;2023-03-24T07:37:50;8.00;99.90
12123;DHT22;6125;59.628;17.852;2023-03-24T07:40:18;8.00;99.90
12123;DHT22;6125;59.628;17.852;2023-03-24T07:42:45;8.10;99.90
12123;DHT22;6125;59.628;17.852;2023-03-24T07:45:12;8.10;99.90
12123;DHT22;6125;59.628;17.852;2023-03-24T07:47:42;8.10;99.90
12123;DHT22;6125;59.628;17.852;2023-03-24T07:50:11;8.10;99.90
12123;DHT22;6125;59.628;17.852;2023-03-24T07:52:39;8.20;99.90
12123;DHT22;6125;59.628;17.852;2023-03-24T07:55:10;8.40;99.90
12123;DHT22;6125;59.628;17.852;2023-03-24T07:57:39;8.30;99.90
12123;DHT22;6125;59.628;17.852;2023-03-24T08:00:08;8.40;99.90
12123;DHT22;6125;59.628;17.852;2023-03-24T08:02:41;8.40;99.90
12123;DHT22;6125;59.628;17.852;2023-03-24T08:05:11;8.50;99.90
12123;DHT22;6125;59.628;17.852;2023-03-24T08:07:39;8.50;99.90
12123;DHT22;6125;59.628;17.852;2023-03-24T08:10:10;8.50;99.90
12123;DHT22;6125;59.628;17.852;2023-03-24T08:12:38;8.60;99.90
12123;DHT22;6125;59.628;17.852;2023-03-24T08:15:07;8.70;99.90
12123;DHT22;6125;59.628;17.852;2023-03-24T08:17:35;8.80;99.90
12123;DHT22;6125;59.628;17.852;2023-03-24T08:20:03;8.90;99.90
12123;DHT22;6125;59.628;17.852;2023-03-24T08:22:40;9.10;99.90
12123;DHT22;6125;59.628;17.852;2023-03-24T08:25:10;9.20;99.90
12123;DHT22;6125;59.628;17.852;2023-03-24T08:27:38;9.10;99.90
12123;DHT22;6125;59.628;17.852;2023-03-24T08:30:06;9.10;99.90
12123;DHT22;6125;59.628;17.852;2023-03-24T08:32:35;9.10;99.90
12123;DHT22;6125;59.628;17.852;2023-03-24T08:35:02;9.10;99.90
12123;DHT22;6125;59.628;17.852;2023-03-24T08:37:30;9.20;99.90
12123;DHT22;6125;59.628;17.852;2023-03-24T08:39:57;9.30;99.90
12123;DHT22;6125;59.628;17.852;2023-03-24T08:42:31;9.30;99.90
12123;DHT22;6125;59.628;17.852;2023-03-24T08:44:58;9.30;99.90
12123;DHT22;6125;59.628;17.852;2023-03-24T08:47:27;9.30;99.90
12123;DHT22;6125;59.628;17.852;2023-03-24T08:49:55;9.20;99.90
12123;DHT22;6125;59.628;17.852;2023-03-24T08:52:24;9.20;99.90
12123;DHT22;6125;59.628;17.852;2023-03-24T08:54:51;9.30;99.90
12123;DHT22;6125;59.628;17.852;2023-03-24T08:57:18;9.40;99.90
12123;DHT22;6125;59.628;17.852;2023-03-24T08:59:47;9.40;99.90
12123;DHT22;6125;59.628;17.852;2023-03-24T09:02:14;9.40;99.90
12123;DHT22;6125;59.628;17.852;2023-03-24T09:04:42;9.40;99.90
12123;DHT22;6125;59.628;17.852;2023-03-24T09:07:10;9.50;99.90
12123;DHT22;6125;59.628;17.852;2023-03-24T09:09:37;9.40;99.90
12123;DHT22;6125;59.628;17.852;2023-03-24T09:12:05;9.40;99.90
12123;DHT22;6125;59.628;17.852;2023-03-24T09:14:33;9.50;99.90
12123;DHT22;6125;59.628;17.852;2023-03-24T09:17:01;9.50;99.90
12123;DHT22;6125;59.628;17.852;2023-03-24T09:19:28;9.50;99.90
12123;DHT22;6125;59.628;17.852;2023-03-24T09:21:56;9.60;99.90
12123;DHT22;6125;59.628;17.852;2023-03-24T09:24:23;9.60;99.90
12123;DHT22;6125;59.628;17.852;2023-03-24T09:26:50;9.60;99.90
12123;DHT22;6125;59.628;17.852;2023-03-24T09:29:17;9.70;99.90
12123;DHT22;6125;59.628;17.852;2023-03-24T09:31:45;9.90;99.90
12123;DHT22;6125;59.628;17.852;2023-03-24T09:34:13;9.90;99.90
12123;DHT22;6125;59.628;17.852;2023-03-24T09:36:41;10.10;99.90
12123;DHT22;6125;59.628;17.852;2023-03-24T09:39:08;10.20;99.90
12123;DHT22;6125;59.628;17.852;2023-03-24T09:41:35;10.20;99.90
12123;DHT22;6125;59.628;17.852;2023-03-24T09:44:06;10.20;99.90
12123;DHT22;6125;59.628;17.852;2023-03-24T09:46:35;10.10;99.90
12123;DHT22;6125;59.628;17.852;2023-03-24T09:49:03;10.20;99.90
12123;DHT22;6125;59.628;17.852;2023-03-24T09:51:35;10.10;99.90
12123;DHT22;6125;59.628;17.852;2023-03-24T09:54:12;10.10;99.90
12123;DHT22;6125;59.628;17.852;2023-03-24T09:56:43;9.90;99.90
12123;DHT22;6125;59.628;17.852;2023-03-24T09:59:24;9.90;99.90
12123;DHT22;6125;59.628;17.852;2023-03-24T10:01:55;9.80;99.90
12123;DHT22;6125;59.628;17.852;2023-03-24T10:04:25;9.70;99.90
12123;DHT22;6125;59.628;17.852;2023-03-24T10:06:57;9.70;99.90
12123;DHT22;6125;59.628;17.852;2023-03-24T10:09:28;9.80;99.90
12123;DHT22;6125;59.628;17.852;2023-03-24T10:12:13;9.90;99.90
12123;DHT22;6125;59.628;17.852;2023-03-24T10:15:01;9.90;99.90
12123;DHT22;6125;59.628;17.852;2023-03-24T10:17:39;10.00;99.90
12123;DHT22;6125;59.628;17.852;2023-03-24T10:20:17;10.10;99.90
12123;DHT22;6125;59.628;17.852;2023-03-24T10:22:56;10.20;99.90
12123;DHT22;6125;59.628;17.852;2023-03-24T10:25:37;10.20;99.90
12123;DHT22;6125;59.628;17.852;2023-03-24T10:28:13;10.20;99.90
12123;DHT22;6125;59.628;17.852;2023-03-24T10:30:42;10.20;99.90
12123;DHT22;6125;59.628;17.852;2023-03-24T10:33:17;10.10;99.90
12123;DHT22;6125;59.628;17.852;2023-03-24T10:35:53;10.10;99.90
12123;DHT22;6125;59.628;17.852;2023-03-24T10:38:22;10.10;99.90
12123;DHT22;6125;59.628;17.852;2023-03-24T10:40:49;10.20;99.90
12123;DHT22;6125;59.628;17.852;2023-03-24T10:43:18;10.20;99.90
12123;DHT22;6125;59.628;17.852;2023-03-24T10:45:48;10.10;99.90
12123;DHT22;6125;59.628;17.852;2023-03-24T10:48:34;10.10;99.90
12123;DHT22;6125;59.628;17.852;2023-03-24T10:51:02;10.00;99.90
12123;DHT22;6125;59.628;17.852;2023-03-24T10:53:32;9.90;99.90
12123;DHT22;6125;59.628;17.852;2023-03-24T10:55:59;9.90;99.90
12123;DHT22;6125;59.628;17.852;2023-03-24T10:58:29;9.90;99.90
12123;DHT22;6125;59.628;17.852;2023-03-24T11:01:01;9.80;99.90
12123;DHT22;6125;59.628;17.852;2023-03-24T11:03:30;9.80;99.90
12123;DHT22;6125;59.628;17.852;2023-03-24T11:05:59;9.90;99.90
12123;DHT22;6125;59.628;17.852;2023-03-24T11:08:37;9.90;99.90
12123;DHT22;6125;59.628;17.852;2023-03-24T11:11:13;10.00;99.90
12123;DHT22;6125;59.628;17.852;2023-03-24T11:13:41;10.00;99.90
12123;DHT22;6125;59.628;17.852;2023-03-24T11:16:26;10.00;99.90
12123;DHT22;6125;59.628;17.852;2023-03-24T11:18:55;10.00;99.90
12123;DHT22;6125;59.628;17.852;2023-03-24T11:21:23;9.90;99.90
12123;DHT22;6125;59.628;17.852;2023-03-24T11:23:52;9.90;99.90
12123;DHT22;6125;59.628;17.852;2023-03-24T11:26:21;9.90;99.90
12123;DHT22;6125;59.628;17.852;2023-03-24T11:28:50;9.90;99.90
12123;DHT22;6125;59.628;17.852;2023-03-24T11:31:22;9.90;99.90
12123;DHT22;6125;59.628;17.852;2023-03-24T11:33:55;9.90;99.90
12123;DHT22;6125;59.628;17.852;2023-03-24T11:36:41;9.90;99.90
12123;DHT22;6125;59.628;17.852;2023-03-24T11:39:16;9.80;99.90
12123;DHT22;6125;59.628;17.852;2023-03-24T11:41:50;9.80;99.90
12123;DHT22;6125;59.628;17.852;2023-03-24T11:44:20;9.70;99.90
12123;DHT22;6125;59.628;17.852;2023-03-24T11:46:51;9.70;99.90
12123;DHT22;6125;59.628;17.852;2023-03-24T11:49:21;9.60;99.90
12123;DHT22;6125;59.628;17.852;2023-03-24T11:51:53;9.50;99.90
12123;DHT22;6125;59.628;17.852;2023-03-24T11:54:23;9.40;99.90
12123;DHT22;6125;59.628;17.852;2023-03-24T11:56:55;9.40;99.90
12123;DHT22;6125;59.628;17.852;2023-03-24T11:59:32;9.30;99.90
12123;DHT22;6125;59.628;17.852;2023-03-24T12:02:11;9.30;99.90
12123;DHT22;6125;59.628;17.852;2023-03-24T12:04:49;9.40;99.90
12123;DHT22;6125;59.628;17.852;2023-03-24T12:07:49;9.40;99.90
12123;DHT22;6125;59.628;17.852;2023-03-24T12:10:27;9.40;99.90
12123;DHT22;6125;59.628;17.852;2023-03-24T12:13:04;9.40;99.90
12123;DHT22;6125;59.628;17.852;2023-03-24T12:15:53;9.40;99.90
12123;DHT22;6125;59.628;17.852;2023-03-24T12:18:37;9.40;99.90
12123;DHT22;6125;59.628;17.852;2023-03-24T12:21:15;9.50;99.90
12123;DHT22;6125;59.628;17.852;2023-03-24T12:23:55;9.50;99.90
12123;DHT22;6125;59.628;17.852;2023-03-24T12:26:25;9.50;99.90
12123;DHT22;6125;59.628;17.852;2023-03-24T12:32:06;9.50;99.90
12123;DHT22;6125;59.628;17.852;2023-03-24T12:37:50;9.30;99.90
12123;DHT22;6125;59.628;17.852;2023-03-24T12:40:49;9.30;99.90
12123;DHT22;6125;59.628;17.852;2023-03-24T12:43:29;9.20;99.90
12123;DHT22;6125;59.628;17.852;2023-03-24T12:46:03;9.10;99.90
12123;DHT22;6125;59.628;17.852;2023-03-24T12:48:50;9.00;99.90
12123;DHT22;6125;59.628;17.852;2023-03-24T12:51:30;9.00;99.90
12123;DHT22;6125;59.628;17.852;2023-03-24T12:54:12;9.00;99.90
12123;DHT22;6125;59.628;17.852;2023-03-24T12:56:44;8.90;99.90
12123;DHT22;6125;59.628;17.852;2023-03-24T12:59:17;8.80;99.90
12123;DHT22;6125;59.628;17.852;2023-03-24T13:01:49;8.70;99.90
12123;DHT22;6125;59.628;17.852;2023-03-24T13:04:19;8.70;99.90
12123;DHT22;6125;59.628;17.852;2023-03-24T13:06:49;8.60;99.90
12123;DHT22;6125;59.628;17.852;2023-03-24T13:09:29;8.60;99.90
12123;DHT22;6125;59.628;17.852;2023-03-24T13:12:02;8.50;99.90
12123;DHT22;6125;59.628;17.852;2023-03-24T13:14:35;8.50;99.90
12123;DHT22;6125;59.628;17.852;2023-03-24T13:17:13;8.30;99.90
12123;DHT22;6125;59.628;17.852;2023-03-24T13:19:43;8.20;99.90
12123;DHT22;6125;59.628;17.852;2023-03-24T13:22:15;8.10;99.90
12123;DHT22;6125;59.628;17.852;2023-03-24T13:24:44;8.10;99.90
12123;DHT22;6125;59.628;17.852;2023-03-24T13:27:17;8.10;99.90
12123;DHT22;6125;59.628;17.852;2023-03-24T13:30:31;8.10;99.90
12123;DHT22;6125;59.628;17.852;2023-03-24T13:33:02;8.10;99.90
12123;DHT22;6125;59.628;17.852;2023-03-24T13:35:47;8.00;99.90
12123;DHT22;6125;59.628;17.852;2023-03-24T13:38:21;7.90;99.90
12123;DHT22;6125;59.628;17.852;2023-03-24T13:40:52;7.80;99.90
12123;DHT22;6125;59.628;17.852;2023-03-24T13:43:21;7.80;99.90
12123;DHT22;6125;59.628;17.852;2023-03-24T13:45:57;7.80;99.90
12123;DHT22;6125;59.628;17.852;2023-03-24T13:48:29;7.70;99.90
12123;DHT22;6125;59.628;17.852;2023-03-24T13:50:59;7.70;99.90
12123;DHT22;6125;59.628;17.852;2023-03-24T13:53:33;7.70;99.90
12123;DHT22;6125;59.628;17.852;2023-03-24T13:56:02;7.60;99.90
12123;DHT22;6125;59.628;17.852;2023-03-24T13:58:49;7.60;99.90
12123;DHT22;6125;59.628;17.852;2023-03-24T14:01:31;7.60;99.90
12123;DHT22;6125;59.628;17.852;2023-03-24T14:04:24;7.50;99.90
12123;DHT22;6125;59.628;17.852;2023-03-24T14:06:54;7.50;99.90
12123;DHT22;6125;59.628;17.852;2023-03-24T14:09:23;7.50;99.90
12123;DHT22;6125;59.628;17.852;2023-03-24T14:12:18;7.50;99.90
12123;DHT22;6125;59.628;17.852;2023-03-24T14:15:14;7.40;99.90
12123;DHT22;6125;59.628;17.852;2023-03-24T14:17:45;7.40;99.90
12123;DHT22;6125;59.628;17.852;2023-03-24T14:20:28;7.30;99.90
12123;DHT22;6125;59.628;17.852;2023-03-24T14:22:58;7.30;99.90
12123;DHT22;6125;59.628;17.852;2023-03-24T14:25:27;7.30;99.90
12123;DHT22;6125;59.628;17.852;2023-03-24T14:28:14;7.40;99.90
12123;DHT22;6125;59.628;17.852;2023-03-24T14:30:59;7.40;99.90
12123;DHT22;6125;59.628;17.852;2023-03-24T14:33:28;7.40;99.90
12123;DHT22;6125;59.628;17.852;2023-03-24T14:36:00;7.50;99.90
12123;DHT22;6125;59.628;17.852;2023-03-24T14:38:34;7.50;99.90
12123;DHT22;6125;59.628;17.852;2023-03-24T14:41:06;7.60;99.90
12123;DHT22;6125;59.628;17.852;2023-03-24T14:43:53;7.50;99.90
12123;DHT22;6125;59.628;17.852;2023-03-24T14:46:38;7.50;99.90
12123;DHT22;6125;59.628;17.852;2023-03-24T14:49:22;7.40;99.90
12123;DHT22;6125;59.628;17.852;2023-03-24T14:51:56;7.40;99.90
12123;DHT22;6125;59.628;17.852;2023-03-24T14:54:29;7.40;99.90
12123;DHT22;6125;59.628;17.852;2023-03-24T14:56:58;7.40;99.90
12123;DHT22;6125;59.628;17.852;2023-03-24T14:59:36;7.40;99.90
12123;DHT22;6125;59.628;17.852;2023-03-24T15:02:15;7.40;99.90
12123;DHT22;6125;59.628;17.852;2023-03-24T15:05:17;7.40;99.90
12123;DHT22;6125;59.628;17.852;2023-03-24T15:07:56;7.30;99.90
12123;DHT22;6125;59.628;17.852;2023-03-24T15:10:24;7.30;99.90
12123;DHT22;6125;59.628;17.852;2023-03-24T15:12:51;7.30;99.90
12123;DHT22;6125;59.628;17.852;2023-03-24T15:15:20;7.20;99.90
12123;DHT22;6125;59.628;17.852;2023-03-24T15:17:48;7.20;99.90
12123;DHT22;6125;59.628;17.852;2023-03-24T15:20:22;7.20;99.90
12123;DHT22;6125;59.628;17.852;2023-03-24T15:22:50;7.20;99.90
12123;DHT22;6125;59.628;17.852;2023-03-24T15:25:24;7.10;99.90
12123;DHT22;6125;59.628;17.852;2023-03-24T15:27:53;7.10;99.90
12123;DHT22;6125;59.628;17.852;2023-03-24T15:30:21;7.00;99.90
12123;DHT22;6125;59.628;17.852;2023-03-24T15:32:49;6.90;99.90
12123;DHT22;6125;59.628;17.852;2023-03-24T15:35:18;6.90;99.90
12123;DHT22;6125;59.628;17.852;2023-03-24T15:37:51;6.80;99.90
12123;DHT22;6125;59.628;17.852;2023-03-24T15:40:36;6.70;99.90
12123;DHT22;6125;59.628;17.852;2023-03-24T15:43:13;6.70;99.90
12123;DHT22;6125;59.628;17.852;2023-03-24T15:45:44;6.70;99.90
12123;DHT22;6125;59.628;17.852;2023-03-24T15:48:13;6.70;99.90
12123;DHT22;6125;59.628;17.852;2023-03-24T15:50:54;6.70;99.90
12123;DHT22;6125;59.628;17.852;2023-03-24T15:53:26;6.60;99.90
12123;DHT22;6125;59.628;17.852;2023-03-24T15:56:03;6.60;99.90
12123;DHT22;6125;59.628;17.852;2023-03-24T15:58:30;6.60;99.90
12123;DHT22;6125;59.628;17.852;2023-03-24T16:00:59;6.60;99.90
12123;DHT22;6125;59.628;17.852;2023-03-24T16:03:31;6.50;99.90
12123;DHT22;6125;59.628;17.852;2023-03-24T16:05:58;6.50;99.90
12123;DHT22;6125;59.628;17.852;2023-03-24T16:08:32;6.50;99.90
12123;DHT22;6125;59.628;17.852;2023-03-24T16:11:05;6.50;99.90
12123;DHT22;6125;59.628;17.852;2023-03-24T16:13:36;6.50;99.90
12123;DHT22;6125;59.628;17.852;2023-03-24T16:16:08;6.50;99.90
12123;DHT22;6125;59.628;17.852;2023-03-24T16:18:48;6.50;99.90
12123;DHT22;6125;59.628;17.852;2023-03-24T16:21:17;6.50;99.90
12123;DHT22;6125;59.628;17.852;2023-03-24T16:23:46;6.50;99.90
12123;DHT22;6125;59.628;17.852;2023-03-24T16:26:14;6.50;99.90
12123;DHT22;6125;59.628;17.852;2023-03-24T16:28:41;6.50;99.90
12123;DHT22;6125;59.628;17.852;2023-03-24T16:31:16;6.50;99.90
12123;DHT22;6125;59.628;17.852;2023-03-24T16:33:46;6.40;99.90